createdAt,value
2019-03-26T00:04:39.713Z,0.72
2019-03-26T00:09:44.632Z,0.97
2019-03-26T00:14:49.622Z,0.80
2019-03-26T00:19:54.154Z,0.80
2019-03-26T00:24:59.777Z,1.00
2019-03-26T00:30:04.747Z,0.77
2019-03-26T00:35:12.434Z,0.80
2019-03-26T00:40:17.269Z,0.90
2019-03-26T00:45:22.579Z,0.70
2019-03-26T00:50:27.411Z,0.90
2019-03-26T00:55:32.181Z,1.00
2019-03-26T01:00:37.395Z,0.80
2019-03-26T01:05:41.939Z,0.80
2019-03-26T01:10:46.542Z,0.95
2019-03-26T01:15:53.513Z,0.70
2019-03-26T01:20:58.352Z,1.00
2019-03-26T01:26:03.616Z,1.02
2019-03-26T01:31:08.123Z,0.88
2019-03-26T01:36:13.215Z,0.90
2019-03-26T01:41:18.000Z,0.80
2019-03-26T01:46:24.245Z,1.07
2019-03-26T01:51:29.137Z,0.70
2019-03-26T01:56:34.349Z,0.73
2019-03-26T02:01:38.860Z,0.90
2019-03-26T02:06:44.460Z,0.73
2019-03-26T02:11:49.000Z,1.07
2019-03-26T02:16:55.674Z,1.10
2019-03-26T02:22:01.759Z,0.80
2019-03-26T02:27:07.431Z,0.87
2019-03-26T02:32:12.021Z,1.05
2019-03-26T02:37:17.013Z,1.40
2019-03-26T02:42:21.553Z,1.30
2019-03-26T02:47:27.130Z,1.50
2019-03-26T02:52:31.749Z,1.12
2019-03-26T02:57:36.751Z,1.10
2019-03-26T03:02:41.572Z,1.90
2019-03-26T03:07:46.323Z,1.40
2019-03-26T03:12:50.978Z,1.87
2019-03-26T03:17:56.437Z,1.45
2019-03-26T03:23:01.325Z,1.20
2019-03-26T03:28:10.023Z,1.43
2019-03-26T03:33:15.017Z,1.60
2019-03-26T03:38:20.638Z,1.83
2019-03-26T03:43:25.185Z,1.40
2019-03-26T03:48:30.109Z,1.70
2019-03-26T03:53:35.078Z,1.30
2019-03-26T03:58:40.527Z,1.10
2019-03-26T04:03:45.440Z,1.13
2019-03-26T04:08:51.247Z,0.90
2019-03-26T04:13:58.838Z,1.30
2019-03-26T04:19:03.728Z,1.07
2019-03-26T04:24:08.539Z,1.40
2019-03-26T04:29:13.724Z,1.07
2019-03-26T04:34:22.409Z,1.10
2019-03-26T04:39:25.668Z,1.50
2019-03-26T04:44:30.480Z,1.30
2019-03-26T04:49:35.456Z,1.20
2019-03-26T04:54:40.350Z,0.97
2019-03-26T04:59:45.949Z,1.03
2019-03-26T05:04:50.562Z,1.20
2019-03-26T05:09:55.554Z,0.80
2019-03-26T05:15:00.450Z,1.03
2019-03-26T05:20:06.617Z,0.90
2019-03-26T05:25:11.162Z,1.00
2019-03-26T05:30:16.796Z,1.35
2019-03-26T05:35:21.364Z,1.00
2019-03-26T05:40:27.308Z,1.10
2019-03-26T05:45:32.035Z,1.00
2019-03-26T05:50:39.215Z,0.87
2019-03-26T05:55:43.911Z,0.78
2019-03-26T06:00:48.796Z,1.10
2019-03-26T06:05:53.636Z,1.10
2019-03-26T06:10:58.338Z,1.22
2019-03-26T06:16:02.955Z,1.22
2019-03-26T06:21:07.924Z,1.17
2019-03-26T06:26:12.866Z,1.27
2019-03-26T06:31:17.776Z,1.13
2019-03-26T06:36:22.893Z,1.67
2019-03-26T06:41:27.650Z,2.52
2019-03-26T06:46:32.732Z,2.10
2019-03-26T06:51:37.570Z,2.90
2019-03-26T06:56:42.431Z,2.07
2019-03-26T07:01:47.053Z,3.58
2019-03-26T07:06:51.597Z,3.40
2019-03-26T07:11:56.162Z,2.98
2019-03-26T07:17:00.810Z,3.02
2019-03-26T07:22:05.775Z,3.23
2019-03-26T07:27:10.316Z,2.62
2019-03-26T07:32:14.914Z,3.08
2019-03-26T07:37:19.461Z,4.03
2019-03-26T07:42:24.020Z,7.15
2019-03-26T07:47:28.556Z,3.50
2019-03-26T07:52:33.231Z,4.67
2019-03-26T07:57:38.094Z,4.03
2019-03-26T08:02:42.910Z,4.27
2019-03-26T08:07:57.718Z,4.20
2019-03-26T08:12:54.008Z,4.12
2019-03-26T08:17:58.631Z,4.10
2019-03-26T08:23:03.497Z,3.30
2019-03-26T08:28:08.051Z,4.20
2019-03-26T08:33:12.991Z,4.03
2019-03-26T08:38:17.917Z,3.40
2019-03-26T08:43:22.772Z,2.90
2019-03-26T08:48:27.670Z,2.30
2019-03-26T08:53:32.687Z,2.10
2019-03-26T08:58:38.541Z,2.30
2019-03-26T09:03:43.355Z,2.47
2019-03-26T09:08:48.162Z,2.40
2019-03-26T09:13:52.997Z,2.10
2019-03-26T09:18:58.289Z,2.70
2019-03-26T09:24:03.114Z,2.57
2019-03-26T09:29:08.818Z,2.63
2019-03-26T09:34:13.655Z,2.40
2019-03-26T09:39:18.573Z,2.37
2019-03-26T09:44:23.388Z,2.23
2019-03-26T09:49:28.646Z,2.13
2019-03-26T09:54:33.504Z,2.60
2019-03-26T09:59:38.845Z,2.60
2019-03-26T10:04:43.645Z,2.50
2019-03-26T10:09:48.481Z,2.63
2019-03-26T10:14:53.358Z,2.40
2019-03-26T10:19:58.585Z,2.43
2019-03-26T10:25:03.497Z,2.50
2019-03-26T10:30:08.457Z,2.53
2019-03-26T10:35:13.478Z,2.93
2019-03-26T10:40:24.318Z,3.37
2019-03-26T10:45:29.113Z,2.80
2019-03-26T10:50:34.021Z,2.97
2019-03-26T10:55:38.837Z,2.17
2019-03-26T11:00:43.814Z,2.60
2019-03-26T11:05:48.706Z,2.47
2019-03-26T11:10:56.670Z,2.27
2019-03-26T11:16:01.550Z,2.30
2019-03-26T11:21:06.826Z,2.47
2019-03-26T11:26:11.658Z,2.00
2019-03-26T11:31:16.942Z,1.90
2019-03-26T11:36:21.743Z,1.77
2019-03-26T11:41:27.323Z,2.47
2019-03-26T11:46:32.113Z,2.20
2019-03-26T11:51:37.714Z,2.23
2019-03-26T11:56:42.498Z,2.00
2019-03-26T12:01:47.884Z,1.93
2019-03-26T12:06:52.693Z,2.70
2019-03-26T12:11:57.494Z,2.40
2019-03-26T12:17:02.704Z,2.90
2019-03-26T12:22:08.134Z,2.97
2019-03-26T12:27:12.966Z,2.63
2019-03-26T12:32:18.235Z,2.40
2019-03-26T12:37:23.109Z,2.43
2019-03-26T12:42:28.027Z,2.20
2019-03-26T12:47:32.838Z,1.83
2019-03-26T12:52:37.784Z,1.80
2019-03-26T12:57:42.701Z,1.60
2019-03-26T13:02:50.305Z,1.93
2019-03-26T13:07:55.097Z,1.80
2019-03-26T13:13:00.784Z,1.70
2019-03-26T13:18:06.821Z,1.77
2019-03-26T13:23:12.362Z,2.30
2019-03-26T13:28:17.379Z,1.80
2019-03-26T13:33:24.089Z,1.60
2019-03-26T13:38:28.903Z,2.17
2019-03-26T13:43:33.821Z,2.00
2019-03-26T13:48:38.787Z,1.67
2019-03-26T13:53:44.501Z,1.70
2019-03-26T13:58:49.382Z,1.50
2019-03-26T14:03:54.362Z,1.77
2019-03-26T14:08:59.280Z,1.97
2019-03-26T14:14:04.622Z,1.77
2019-03-26T14:19:09.506Z,1.33
2019-03-26T14:24:15.314Z,1.83
2019-03-26T14:29:20.198Z,1.90
2019-03-26T14:34:25.844Z,2.07
2019-03-26T14:39:30.644Z,1.70
2019-03-26T14:44:35.545Z,1.50
2019-03-26T14:49:40.366Z,1.93
2019-03-26T14:54:45.239Z,1.23
2019-03-26T14:59:50.225Z,1.07
2019-03-26T15:04:58.210Z,1.47
2019-03-26T15:10:03.085Z,1.33
2019-03-26T15:15:08.059Z,1.37
2019-03-26T15:20:13.008Z,1.43
2019-03-26T15:25:18.650Z,1.50
2019-03-26T15:30:23.465Z,1.20
2019-03-26T15:35:28.858Z,1.47
2019-03-26T15:40:33.672Z,1.30
2019-03-26T15:45:38.750Z,1.30
2019-03-26T15:50:44.189Z,1.20
2019-03-26T15:55:49.085Z,1.37
2019-03-26T16:00:53.906Z,1.40
2019-03-26T16:05:59.841Z,1.60
2019-03-26T16:11:04.660Z,1.50
2019-03-26T16:16:10.486Z,2.00
2019-03-26T16:21:15.509Z,1.63
2019-03-26T16:26:21.598Z,1.40
2019-03-26T16:31:26.417Z,1.63
2019-03-26T16:36:32.490Z,1.47
2019-03-26T16:41:48.497Z,1.60
2019-03-26T16:46:45.491Z,1.87
2019-03-26T16:51:50.554Z,1.50
2019-03-26T16:56:56.847Z,1.50
2019-03-26T17:02:02.665Z,1.63
2019-03-26T17:07:07.778Z,1.70
2019-03-26T17:12:12.616Z,1.80
2019-03-26T17:17:18.408Z,1.70
2019-03-26T17:22:23.201Z,1.80
2019-03-26T17:27:29.493Z,2.00
2019-03-26T17:32:34.336Z,2.00
2019-03-26T17:37:40.366Z,1.93
2019-03-26T17:42:45.947Z,1.57
2019-03-26T17:47:52.065Z,1.83
2019-03-26T17:52:56.874Z,1.97
2019-03-26T17:58:02.998Z,1.97
2019-03-26T18:03:07.876Z,1.90
2019-03-26T18:08:14.174Z,2.47
2019-03-26T18:13:19.031Z,2.00
2019-03-26T18:18:25.141Z,1.90
2019-03-26T18:23:29.990Z,1.90
2019-03-26T18:28:36.057Z,1.70
2019-03-26T18:33:41.025Z,2.10
2019-03-26T18:38:46.493Z,1.83
2019-03-26T18:43:51.314Z,1.63
2019-03-26T18:48:56.270Z,1.82
2019-03-26T18:54:00.866Z,1.75
2019-03-26T18:59:06.182Z,1.87
2019-03-26T19:04:11.226Z,2.00
2019-03-26T19:09:16.378Z,2.20
2019-03-26T19:14:21.256Z,1.77
2019-03-26T19:19:26.211Z,2.00
2019-03-26T19:24:30.728Z,1.80
2019-03-26T19:29:35.601Z,1.77
2019-03-26T19:34:40.444Z,2.00
2019-03-26T19:39:44.999Z,2.35
2019-03-26T19:44:49.634Z,1.40
2019-03-26T19:49:55.205Z,2.10
2019-03-26T19:55:00.997Z,2.70
2019-03-26T20:00:07.718Z,1.40
2019-03-26T20:05:12.302Z,1.70
2019-03-26T20:10:17.402Z,1.70
2019-03-26T20:15:22.117Z,1.90
2019-03-26T20:20:27.154Z,2.42
2019-03-26T20:25:32.461Z,2.00
2019-03-26T20:30:38.787Z,2.05
2019-03-26T20:35:43.339Z,2.02
2019-03-26T20:40:49.017Z,2.47
2019-03-26T20:45:54.621Z,1.90
2019-03-26T20:56:13.994Z,2.37
2019-03-26T21:01:19.966Z,2.37
2019-03-26T21:06:24.939Z,2.50
2019-03-26T21:11:30.385Z,2.20
2019-03-26T21:16:35.194Z,2.10
2019-03-26T21:21:40.375Z,2.60
2019-03-26T21:26:45.181Z,2.70
2019-03-26T21:31:50.160Z,2.13
2019-03-26T21:36:54.680Z,2.10
2019-03-26T21:41:59.473Z,2.45
2019-03-26T21:47:05.367Z,2.30
2019-03-26T21:52:09.881Z,2.62
2019-03-26T21:57:14.455Z,2.52
2019-03-26T22:02:19.609Z,3.52
2019-03-26T22:07:24.153Z,2.58
2019-03-26T22:12:29.165Z,2.92
2019-03-26T22:17:34.785Z,2.67
2019-03-26T22:22:40.482Z,3.20
2019-03-26T22:27:46.093Z,3.12
2019-03-26T22:32:52.989Z,3.40
2019-03-26T22:37:57.561Z,3.00
2019-03-26T22:43:02.811Z,3.27
2019-03-26T22:48:07.581Z,3.20
2019-03-26T22:53:12.104Z,3.30
2019-03-26T22:58:16.622Z,3.65
2019-03-26T23:03:22.345Z,4.15
2019-03-26T23:08:26.893Z,3.62
2019-03-26T23:13:32.442Z,3.30
2019-03-26T23:18:37.045Z,3.50
2019-03-26T23:23:43.253Z,3.22
2019-03-26T23:28:48.083Z,3.60
2019-03-26T23:33:53.700Z,3.77
2019-03-26T23:38:58.213Z,3.25
2019-03-26T23:44:04.298Z,3.35
2019-03-26T23:49:09.205Z,3.20
2019-03-26T23:54:14.418Z,3.90
2019-03-26T23:59:18.938Z,3.70
